createdAt,value
2023-02-25T00:01:14.587Z,99.90
2023-02-25T00:03:43.201Z,99.90
2023-02-25T00:06:13.724Z,99.90
2023-02-25T00:08:46.205Z,99.90
2023-02-25T00:11:15.626Z,99.90
2023-02-25T00:13:44.255Z,99.90
2023-02-25T00:16:13.215Z,99.90
2023-02-25T00:18:44.205Z,99.90
2023-02-25T00:21:15.141Z,99.90
2023-02-25T00:23:46.473Z,99.90
2023-02-25T00:26:15.372Z,99.90
2023-02-25T00:28:43.836Z,99.90
2023-02-25T00:31:15.324Z,99.90
2023-02-25T00:33:43.404Z,99.90
2023-02-25T00:36:13.020Z,99.90
2023-02-25T00:38:41.322Z,99.90
2023-02-25T00:41:12.622Z,99.90
2023-02-25T00:43:42.115Z,99.90
2023-02-25T00:46:10.490Z,99.90
2023-02-25T00:48:38.675Z,99.90
2023-02-25T00:51:08.871Z,99.90
2023-02-25T00:53:37.879Z,99.90
2023-02-25T00:56:07.217Z,99.90
2023-02-25T00:58:37.734Z,99.90
2023-02-25T01:01:07.443Z,99.90
2023-02-25T01:03:35.182Z,99.90
2023-02-25T01:06:03.049Z,99.90
2023-02-25T01:08:30.914Z,99.90
2023-02-25T01:10:58.659Z,99.90
2023-02-25T01:13:26.376Z,99.90
2023-02-25T01:15:55.459Z,99.90
2023-02-25T01:18:24.152Z,99.90
2023-02-25T01:20:51.862Z,99.90
2023-02-25T01:23:19.613Z,99.90
2023-02-25T01:25:47.318Z,99.90
2023-02-25T01:28:15.014Z,99.90
2023-02-25T01:30:42.747Z,99.90
2023-02-25T01:33:11.882Z,99.90
2023-02-25T01:35:39.591Z,99.90
2023-02-25T01:38:07.295Z,99.90
2023-02-25T01:40:34.994Z,99.90
2023-02-25T01:43:02.688Z,99.90
2023-02-25T01:45:33.447Z,99.90
2023-02-25T01:48:10.390Z,99.90
2023-02-25T01:50:45.994Z,99.90
2023-02-25T01:53:14.992Z,99.90
2023-02-25T01:55:43.406Z,99.90
2023-02-25T01:58:11.731Z,99.90
2023-02-25T02:00:39.778Z,99.90
2023-02-25T02:03:16.060Z,99.90
2023-02-25T02:06:03.928Z,99.90
2023-02-25T02:08:34.223Z,99.90
2023-02-25T02:11:02.614Z,99.90
2023-02-25T02:13:31.622Z,99.90
2023-02-25T02:16:14.533Z,99.90
2023-02-25T02:18:46.474Z,99.90
2023-02-25T02:21:26.057Z,99.90
2023-02-25T02:24:21.091Z,99.90
2023-02-25T02:26:59.392Z,99.90
2023-02-25T02:30:23.212Z,99.90
2023-02-25T02:32:57.826Z,99.90
2023-02-25T02:35:36.617Z,99.90
2023-02-25T02:38:13.148Z,99.90
2023-02-25T02:40:49.196Z,99.90
2023-02-25T02:43:29.855Z,99.90
2023-02-25T02:46:01.865Z,99.90
2023-02-25T02:48:37.242Z,99.90
2023-02-25T02:51:10.419Z,99.90
2023-02-25T02:53:41.968Z,99.90
2023-02-25T02:56:13.233Z,99.90
2023-02-25T02:58:44.662Z,99.90
2023-02-25T03:01:15.167Z,99.90
2023-02-25T03:03:48.509Z,99.90
2023-02-25T03:06:21.189Z,99.90
2023-02-25T03:08:54.581Z,99.90
2023-02-25T03:11:22.416Z,99.90
2023-02-25T03:13:51.776Z,99.90
2023-02-25T03:16:25.208Z,99.90
2023-02-25T03:18:59.961Z,99.90
2023-02-25T03:21:33.453Z,99.90
2023-02-25T03:24:04.233Z,99.90
2023-02-25T03:26:34.608Z,99.90
2023-02-25T03:29:02.393Z,99.90
2023-02-25T03:31:33.833Z,99.90
2023-02-25T03:34:08.716Z,99.90
2023-02-25T03:36:42.207Z,99.90
2023-02-25T03:39:13.059Z,99.90
2023-02-25T03:41:44.642Z,99.90
2023-02-25T03:44:17.040Z,99.90
2023-02-25T03:46:47.647Z,99.90
2023-02-25T03:49:22.563Z,99.90
2023-02-25T03:51:52.100Z,99.90
2023-02-25T03:54:19.972Z,99.90
2023-02-25T03:56:49.825Z,99.90
2023-02-25T03:59:18.812Z,99.90
2023-02-25T04:01:49.756Z,99.90
2023-02-25T04:04:19.001Z,99.90
2023-02-25T04:06:47.271Z,99.90
2023-02-25T04:09:15.061Z,99.90
2023-02-25T04:11:42.769Z,99.90
2023-02-25T04:14:10.496Z,99.90
2023-02-25T04:16:38.273Z,99.90
2023-02-25T04:19:05.981Z,99.90
2023-02-25T04:21:36.709Z,99.90
2023-02-25T04:24:05.558Z,99.90
2023-02-25T04:26:33.356Z,99.90
2023-02-25T04:29:01.101Z,99.90
2023-02-25T04:31:28.877Z,99.90
2023-02-25T04:33:58.079Z,99.90
2023-02-25T04:36:28.202Z,99.90
2023-02-25T04:38:58.686Z,99.90
2023-02-25T04:41:30.730Z,99.90
2023-02-25T04:43:58.883Z,99.90
2023-02-25T04:46:27.021Z,99.90
2023-02-25T04:48:54.886Z,99.90
2023-02-25T04:51:22.639Z,99.90
2023-02-25T04:53:50.757Z,99.90
2023-02-25T04:56:19.879Z,99.90
2023-02-25T04:58:47.981Z,99.90
2023-02-25T05:01:15.897Z,99.90
2023-02-25T05:03:43.680Z,99.90
2023-02-25T05:06:11.453Z,99.90
2023-02-25T05:08:39.297Z,99.90
2023-02-25T05:11:07.051Z,99.90
2023-02-25T05:13:36.122Z,99.90
2023-02-25T05:16:08.307Z,99.90
2023-02-25T05:18:39.616Z,99.90
2023-02-25T05:21:12.077Z,99.90
2023-02-25T05:23:39.898Z,99.90
2023-02-25T05:26:08.035Z,99.90
2023-02-25T05:28:38.104Z,99.90
2023-02-25T05:31:06.654Z,99.90
2023-02-25T05:33:34.958Z,99.90
2023-02-25T05:36:02.704Z,99.90
2023-02-25T05:38:30.420Z,99.90
2023-02-25T05:41:00.574Z,99.90
2023-02-25T05:43:28.737Z,99.90
2023-02-25T05:45:59.347Z,99.90
2023-02-25T05:48:27.042Z,99.90
2023-02-25T05:51:01.627Z,99.90
2023-02-25T05:53:29.427Z,99.90
2023-02-25T05:55:57.148Z,99.90
2023-02-25T05:58:25.531Z,99.90
2023-02-25T06:00:53.994Z,99.90
2023-02-25T06:03:23.128Z,99.90
2023-02-25T06:05:53.044Z,99.90
2023-02-25T06:08:20.831Z,99.90
2023-02-25T06:10:48.575Z,99.90
2023-02-25T06:13:16.332Z,99.90
2023-02-25T06:15:44.204Z,99.90
2023-02-25T06:18:11.945Z,99.90
2023-02-25T06:20:40.954Z,99.90
2023-02-25T06:23:08.636Z,99.90
2023-02-25T06:25:36.579Z,99.90
2023-02-25T06:28:04.624Z,99.90
2023-02-25T06:30:32.826Z,99.90
2023-02-25T06:33:00.568Z,99.90
2023-02-25T06:35:28.548Z,99.90
2023-02-25T06:37:58.281Z,99.90
2023-02-25T06:40:26.378Z,99.90
2023-02-25T06:42:54.132Z,99.90
2023-02-25T06:45:22.042Z,99.90
2023-02-25T06:47:49.714Z,99.90
2023-02-25T06:50:18.348Z,99.90
2023-02-25T06:52:46.016Z,99.90
2023-02-25T06:55:15.059Z,99.90
2023-02-25T06:57:42.757Z,99.90
2023-02-25T07:00:11.687Z,99.90
2023-02-25T07:02:39.395Z,99.90
2023-02-25T07:05:07.586Z,99.90
2023-02-25T07:07:35.326Z,99.90
2023-02-25T07:10:03.018Z,99.90
2023-02-25T07:12:32.384Z,99.90
2023-02-25T07:15:00.380Z,99.90
2023-02-25T07:17:28.056Z,99.90
2023-02-25T07:19:56.134Z,99.90
2023-02-25T07:22:24.316Z,99.90
2023-02-25T07:24:52.194Z,99.90
2023-02-25T07:27:20.033Z,99.90
2023-02-25T07:29:49.277Z,99.90
2023-02-25T07:32:17.182Z,99.90
2023-02-25T07:34:45.230Z,99.90
2023-02-25T07:37:13.612Z,99.90
2023-02-25T07:39:41.740Z,99.90
2023-02-25T07:42:09.445Z,99.90
2023-02-25T07:44:37.164Z,99.90
2023-02-25T07:47:06.339Z,99.90
2023-02-25T07:49:34.123Z,99.90
2023-02-25T07:52:01.870Z,99.90
2023-02-25T07:54:29.808Z,99.90
2023-02-25T07:56:57.545Z,99.90
2023-02-25T07:59:25.324Z,99.90
2023-02-25T08:01:53.017Z,99.90
2023-02-25T08:04:22.401Z,99.90
2023-02-25T08:06:51.570Z,99.90
2023-02-25T08:09:19.777Z,99.90
2023-02-25T08:11:48.001Z,99.90
2023-02-25T08:14:16.076Z,99.90
2023-02-25T08:16:43.778Z,99.90
2023-02-25T08:19:11.521Z,99.90
2023-02-25T08:21:41.172Z,99.90
2023-02-25T08:24:09.543Z,99.90
2023-02-25T08:26:37.280Z,99.90
2023-02-25T08:29:05.300Z,99.90
2023-02-25T08:31:33.207Z,99.90
2023-02-25T08:34:01.285Z,99.90
2023-02-25T08:36:31.224Z,99.90
2023-02-25T08:39:01.680Z,99.90
2023-02-25T08:41:30.575Z,99.90
2023-02-25T08:44:00.301Z,99.90
2023-02-25T08:46:30.507Z,99.90
2023-02-25T08:48:59.023Z,99.90
2023-02-25T08:51:33.769Z,99.90
2023-02-25T08:54:04.916Z,99.90
2023-02-25T08:56:32.747Z,99.90
2023-02-25T08:59:00.500Z,99.90
2023-02-25T09:01:44.305Z,99.90
2023-02-25T09:04:12.477Z,99.90
2023-02-25T09:06:40.279Z,99.90
2023-02-25T09:09:09.582Z,99.90
2023-02-25T09:11:37.334Z,99.90
2023-02-25T09:14:05.055Z,99.90
2023-02-25T09:16:32.897Z,99.90
2023-02-25T09:19:00.650Z,99.90
2023-02-25T09:21:28.384Z,99.90
2023-02-25T09:23:56.099Z,99.90
2023-02-25T09:26:25.260Z,99.90
2023-02-25T09:28:52.975Z,99.90
2023-02-25T09:31:21.195Z,99.90
2023-02-25T09:33:49.073Z,99.90
2023-02-25T09:36:19.078Z,99.90
2023-02-25T09:38:48.138Z,99.90
2023-02-25T09:41:25.405Z,99.90
2023-02-25T09:44:03.329Z,99.90
2023-02-25T09:46:32.228Z,99.90
2023-02-25T09:49:04.172Z,99.90
2023-02-25T09:51:37.198Z,99.90
2023-02-25T09:54:16.658Z,99.90
2023-02-25T09:56:44.718Z,99.90
2023-02-25T09:59:16.840Z,99.90
2023-02-25T10:01:50.218Z,99.90
2023-02-25T10:04:25.550Z,99.90
2023-02-25T10:06:55.972Z,99.90
2023-02-25T10:09:35.226Z,99.90
2023-02-25T10:12:14.392Z,99.90
2023-02-25T10:15:06.118Z,99.90
2023-02-25T10:17:44.363Z,99.90
2023-02-25T10:20:38.904Z,99.90
2023-02-25T10:23:13.696Z,99.90
2023-02-25T10:25:59.459Z,99.90
2023-02-25T10:28:30.623Z,99.90
2023-02-25T10:31:04.873Z,99.90
2023-02-25T10:33:36.772Z,99.90
2023-02-25T10:36:09.736Z,99.90
2023-02-25T10:38:40.852Z,99.90
2023-02-25T10:41:09.362Z,99.90
2023-02-25T10:43:37.369Z,99.90
2023-02-25T10:46:12.413Z,99.90
2023-02-25T10:48:42.184Z,99.90
2023-02-25T10:51:12.791Z,99.90
2023-02-25T10:53:41.189Z,99.90
2023-02-25T10:56:11.122Z,99.90
2023-02-25T10:58:41.398Z,99.90
2023-02-25T11:01:15.232Z,99.90
2023-02-25T11:03:48.726Z,99.90
2023-02-25T11:06:24.289Z,99.90
2023-02-25T11:08:54.584Z,99.90
2023-02-25T11:11:24.344Z,99.90
2023-02-25T11:14:00.889Z,99.90
2023-02-25T11:16:31.719Z,99.90
2023-02-25T11:19:02.986Z,99.90
2023-02-25T11:21:40.997Z,99.90
2023-02-25T11:24:14.896Z,99.90
2023-02-25T11:26:45.176Z,99.90
2023-02-25T11:29:18.679Z,99.90
2023-02-25T11:31:52.043Z,99.90
2023-02-25T11:34:23.633Z,99.90
2023-02-25T11:36:52.564Z,99.90
2023-02-25T11:39:22.324Z,99.90
2023-02-25T11:41:51.998Z,99.90
2023-02-25T11:44:28.072Z,99.90
2023-02-25T11:47:05.095Z,99.90
2023-02-25T11:50:04.938Z,99.90
2023-02-25T11:52:38.178Z,99.90
2023-02-25T11:55:21.616Z,99.90
2023-02-25T11:58:03.507Z,99.90
2023-02-25T12:00:39.771Z,99.90
2023-02-25T12:03:29.664Z,99.90
2023-02-25T12:06:10.373Z,99.90
2023-02-25T12:08:45.860Z,99.90
2023-02-25T12:11:47.790Z,99.90
2023-02-25T12:14:51.206Z,99.90
2023-02-25T12:17:48.357Z,99.90
2023-02-25T12:20:46.211Z,99.90
2023-02-25T12:23:38.847Z,99.90
2023-02-25T12:26:12.762Z,99.90
2023-02-25T12:29:05.116Z,99.90
2023-02-25T12:32:08.372Z,99.90
2023-02-25T12:35:07.621Z,99.90
2023-02-25T12:37:56.269Z,99.90
2023-02-25T12:40:38.093Z,99.90
2023-02-25T12:43:19.261Z,99.90
2023-02-25T12:46:04.449Z,99.90
2023-02-25T12:48:48.217Z,99.90
2023-02-25T12:51:48.452Z,99.90
2023-02-25T12:54:38.915Z,99.90
2023-02-25T12:57:31.872Z,99.90
2023-02-25T13:00:20.217Z,99.90
2023-02-25T13:03:21.950Z,99.90
2023-02-25T13:06:04.170Z,99.90
2023-02-25T13:08:41.964Z,99.90
2023-02-25T13:11:22.111Z,99.90
2023-02-25T13:14:11.997Z,99.90
2023-02-25T13:16:54.456Z,99.90
2023-02-25T13:19:48.265Z,99.90
2023-02-25T13:22:24.692Z,99.90
2023-02-25T13:25:05.033Z,99.90
2023-02-25T13:27:53.573Z,99.90
2023-02-25T13:30:36.019Z,99.90
2023-02-25T13:33:24.816Z,99.90
2023-02-25T13:36:01.564Z,99.90
2023-02-25T13:38:39.365Z,99.90
2023-02-25T13:41:26.504Z,99.90
2023-02-25T13:44:32.895Z,99.90
2023-02-25T13:47:28.572Z,99.90
2023-02-25T13:50:19.459Z,99.90
2023-02-25T13:53:05.387Z,99.90
2023-02-25T13:55:55.032Z,99.90
2023-02-25T13:58:42.350Z,99.90
2023-02-25T14:01:30.122Z,99.90
2023-02-25T14:04:33.261Z,99.90
2023-02-25T14:07:20.299Z,99.90
2023-02-25T14:09:57.778Z,99.90
2023-02-25T14:12:41.143Z,99.90
2023-02-25T14:15:36.524Z,99.90
2023-02-25T14:18:24.328Z,99.90
2023-02-25T14:21:04.766Z,99.90
2023-02-25T14:23:44.248Z,99.90
2023-02-25T14:26:24.777Z,99.90
2023-02-25T14:29:09.012Z,99.90
2023-02-25T14:31:50.642Z,99.90
2023-02-25T14:34:37.046Z,99.90
2023-02-25T14:37:21.121Z,99.90
2023-02-25T14:40:05.177Z,99.90
2023-02-25T14:42:44.644Z,99.90
2023-02-25T14:45:22.195Z,99.90
2023-02-25T14:47:58.600Z,99.90
2023-02-25T14:50:32.229Z,99.90
2023-02-25T14:53:27.711Z,99.90
2023-02-25T14:56:10.996Z,99.90
2023-02-25T14:59:11.633Z,99.90
2023-02-25T15:02:01.334Z,99.90
2023-02-25T15:04:50.720Z,99.90
2023-02-25T15:07:33.379Z,99.90
2023-02-25T15:10:15.824Z,99.90
2023-02-25T15:13:12.487Z,99.90
2023-02-25T15:15:59.571Z,99.90
2023-02-25T15:18:59.879Z,99.90
2023-02-25T15:21:38.884Z,99.90
2023-02-25T15:24:32.470Z,99.90
2023-02-25T15:27:00.725Z,99.90
2023-02-25T15:29:57.283Z,99.90
2023-02-25T15:32:28.249Z,99.90
2023-02-25T15:35:00.255Z,99.90
2023-02-25T15:37:31.606Z,99.90
2023-02-25T15:40:02.971Z,99.90
2023-02-25T15:42:49.440Z,99.90
2023-02-25T15:45:38.051Z,99.90
2023-02-25T15:48:31.707Z,99.90
2023-02-25T15:51:01.220Z,99.90
2023-02-25T15:53:48.281Z,99.90
2023-02-25T15:56:32.210Z,99.90
2023-02-25T15:59:00.416Z,99.90
2023-02-25T16:01:42.446Z,99.90
2023-02-25T16:04:45.264Z,99.90
2023-02-25T16:07:16.769Z,99.90
2023-02-25T16:09:51.530Z,99.90
2023-02-25T16:12:20.875Z,99.90
2023-02-25T16:14:48.921Z,99.90
2023-02-25T16:17:20.160Z,99.90
2023-02-25T16:19:52.774Z,99.90
2023-02-25T16:22:23.151Z,99.90
2023-02-25T16:24:53.617Z,99.90
2023-02-25T16:27:37.247Z,99.90
2023-02-25T16:30:14.860Z,99.90
2023-02-25T16:32:54.742Z,99.90
2023-02-25T16:35:28.286Z,99.90
2023-02-25T16:38:04.485Z,99.90
2023-02-25T16:40:37.613Z,99.90
2023-02-25T16:43:07.968Z,99.90
2023-02-25T16:45:40.804Z,99.90
2023-02-25T16:48:15.280Z,99.90
2023-02-25T16:50:47.150Z,99.90
2023-02-25T16:53:20.184Z,99.90
2023-02-25T16:55:48.677Z,99.90
2023-02-25T16:58:26.240Z,99.90
2023-02-25T17:00:56.145Z,99.30
2023-02-25T17:03:26.622Z,99.00
2023-02-25T17:06:06.266Z,98.30
2023-02-25T17:08:34.917Z,99.40
2023-02-25T17:11:05.758Z,99.30
2023-02-25T17:13:37.503Z,98.00
2023-02-25T17:16:07.072Z,97.80
2023-02-25T17:18:39.752Z,98.00
2023-02-25T17:21:15.757Z,98.60
2023-02-25T17:23:45.053Z,98.90
2023-02-25T17:26:15.144Z,99.40
2023-02-25T17:28:46.985Z,99.80
2023-02-25T17:31:18.291Z,99.90
2023-02-25T17:33:52.800Z,99.90
2023-02-25T17:36:24.867Z,99.90
2023-02-25T17:38:57.151Z,99.90
2023-02-25T17:41:25.830Z,99.90
2023-02-25T17:43:55.174Z,99.90
2023-02-25T17:46:29.259Z,99.90
2023-02-25T17:48:59.422Z,99.90
2023-02-25T17:51:33.542Z,99.90
2023-02-25T17:54:07.473Z,99.90
2023-02-25T17:56:36.893Z,99.90
2023-02-25T17:59:08.584Z,99.90
2023-02-25T18:01:49.127Z,99.90
2023-02-25T18:04:26.157Z,99.90
2023-02-25T18:06:55.282Z,99.90
2023-02-25T18:09:37.874Z,99.90
2023-02-25T18:12:08.286Z,99.90
2023-02-25T18:14:39.459Z,99.90
2023-02-25T18:17:19.813Z,99.90
2023-02-25T18:19:48.845Z,99.90
2023-02-25T18:22:32.686Z,99.90
2023-02-25T18:25:02.966Z,99.90
2023-02-25T18:27:32.408Z,99.90
2023-02-25T18:30:18.035Z,99.90
2023-02-25T18:32:46.139Z,99.90
2023-02-25T18:35:14.151Z,99.90
2023-02-25T18:37:42.628Z,99.90
2023-02-25T18:40:16.999Z,99.90
2023-02-25T18:42:44.992Z,99.90
2023-02-25T18:45:20.961Z,99.90
2023-02-25T18:47:49.115Z,99.90
2023-02-25T18:50:17.561Z,99.90
2023-02-25T18:52:45.866Z,99.90
2023-02-25T18:55:18.262Z,99.90
2023-02-25T18:57:46.263Z,99.90
2023-02-25T19:00:15.189Z,99.90
2023-02-25T19:02:49.661Z,99.90
2023-02-25T19:05:18.348Z,99.90
2023-02-25T19:07:46.578Z,99.90
2023-02-25T19:10:17.829Z,99.90
2023-02-25T19:12:48.478Z,99.90
2023-02-25T19:15:18.990Z,99.90
2023-02-25T19:17:48.745Z,99.90
2023-02-25T19:20:18.695Z,99.90
2023-02-25T19:22:48.533Z,99.90
2023-02-25T19:25:20.985Z,99.90
2023-02-25T19:27:49.469Z,99.90
2023-02-25T19:30:19.274Z,99.90
2023-02-25T19:32:48.522Z,99.90
2023-02-25T19:35:16.452Z,99.90
2023-02-25T19:37:45.130Z,99.90
2023-02-25T19:40:15.329Z,99.90
2023-02-25T19:42:45.035Z,99.90
2023-02-25T19:45:19.812Z,99.90
2023-02-25T19:47:50.484Z,99.90
2023-02-25T19:50:20.797Z,99.90
2023-02-25T19:52:48.891Z,99.90
2023-02-25T19:55:16.969Z,99.90
2023-02-25T19:57:44.850Z,99.90
2023-02-25T20:00:15.865Z,99.90
2023-02-25T20:02:44.149Z,99.90
2023-02-25T20:05:14.508Z,99.90
2023-02-25T20:07:43.113Z,99.90
2023-02-25T20:10:13.665Z,99.90
2023-02-25T20:12:42.484Z,99.90
2023-02-25T20:15:12.591Z,99.90
2023-02-25T20:17:41.686Z,99.90
2023-02-25T20:20:10.840Z,99.90
2023-02-25T20:22:40.891Z,99.90
2023-02-25T20:25:10.202Z,99.90
2023-02-25T20:27:39.671Z,99.90
2023-02-25T20:30:09.023Z,99.90
2023-02-25T20:32:36.856Z,99.90
2023-02-25T20:35:05.428Z,99.90
2023-02-25T20:37:37.784Z,99.90
2023-02-25T20:40:11.864Z,99.90
2023-02-25T20:42:48.718Z,99.90
2023-02-25T20:45:17.343Z,99.90
2023-02-25T20:47:45.467Z,99.90
2023-02-25T20:50:16.321Z,99.90
2023-02-25T20:52:44.264Z,99.90
2023-02-25T20:55:13.460Z,99.90
2023-02-25T20:57:41.273Z,99.90
2023-02-25T21:00:14.532Z,99.90
2023-02-25T21:02:43.787Z,99.90
2023-02-25T21:05:14.625Z,99.90
2023-02-25T21:07:42.318Z,99.90
2023-02-25T21:10:11.300Z,99.90
2023-02-25T21:12:40.466Z,99.90
2023-02-25T21:15:09.606Z,99.90
2023-02-25T21:17:37.347Z,99.90
2023-02-25T21:20:06.733Z,99.90
2023-02-25T21:22:38.249Z,99.90
2023-02-25T21:25:06.442Z,99.90
2023-02-25T21:27:36.222Z,99.90
2023-02-25T21:30:06.474Z,99.90
2023-02-25T21:32:34.198Z,99.90
2023-02-25T21:35:01.940Z,99.90
2023-02-25T21:37:29.655Z,99.90
2023-02-25T21:39:57.390Z,99.90
2023-02-25T21:42:25.147Z,99.90
2023-02-25T21:44:52.839Z,99.90
2023-02-25T21:47:21.912Z,99.90
2023-02-25T21:49:50.219Z,99.90
2023-02-25T21:52:18.615Z,99.90
2023-02-25T21:54:46.371Z,99.90
2023-02-25T21:57:14.096Z,99.90
2023-02-25T21:59:41.818Z,99.90
2023-02-25T22:02:11.144Z,99.90
2023-02-25T22:04:40.303Z,99.90
2023-02-25T22:07:08.097Z,99.90
2023-02-25T22:09:35.938Z,99.90
2023-02-25T22:12:03.683Z,99.90
2023-02-25T22:14:31.408Z,99.90
2023-02-25T22:17:01.588Z,99.90
2023-02-25T22:19:29.656Z,99.90
2023-02-25T22:21:58.693Z,99.90
2023-02-25T22:24:26.781Z,99.90
2023-02-25T22:26:54.549Z,99.90
2023-02-25T22:29:22.544Z,99.90
2023-02-25T22:31:50.782Z,99.90
2023-02-25T22:34:19.106Z,99.90
2023-02-25T22:36:47.682Z,99.90
2023-02-25T22:39:16.977Z,99.90
2023-02-25T22:41:44.714Z,99.90
2023-02-25T22:44:12.430Z,99.90
2023-02-25T22:46:41.261Z,99.90
2023-02-25T22:49:09.947Z,99.90
2023-02-25T22:51:41.998Z,99.90
2023-02-25T22:54:10.037Z,99.90
2023-02-25T22:56:39.253Z,99.90
2023-02-25T22:59:07.768Z,99.90
2023-02-25T23:01:36.291Z,99.90
2023-02-25T23:04:04.202Z,99.90
2023-02-25T23:06:48.879Z,99.90
2023-02-25T23:09:16.917Z,99.90
2023-02-25T23:11:46.027Z,99.90
2023-02-25T23:14:14.552Z,99.90
2023-02-25T23:16:44.012Z,99.90
2023-02-25T23:19:15.286Z,99.90
2023-02-25T23:21:43.383Z,99.90
2023-02-25T23:24:16.468Z,99.90
2023-02-25T23:26:47.622Z,99.90
2023-02-25T23:29:15.742Z,99.90
2023-02-25T23:31:45.586Z,99.90
2023-02-25T23:34:15.501Z,99.90
2023-02-25T23:36:44.612Z,99.90
2023-02-25T23:39:13.745Z,99.90
2023-02-25T23:41:41.750Z,99.90
2023-02-25T23:44:13.361Z,99.90
2023-02-25T23:46:44.000Z,99.90
2023-02-25T23:49:14.339Z,99.90
2023-02-25T23:51:43.486Z,99.90
2023-02-25T23:54:14.204Z,99.90
2023-02-25T23:56:41.922Z,99.90
2023-02-25T23:59:11.344Z,99.90
